sensor_id;sensor_type;location;lat;lon;timestamp;temperature;humidity
63317;DHT22;49822;41.468;13.560;2023-05-10T00:00:07;17.60;88.20
63317;DHT22;49822;41.468;13.560;2023-05-10T00:02:38;17.70;88.00
63317;DHT22;49822;41.468;13.560;2023-05-10T00:05:05;17.70;87.80
63317;DHT22;49822;41.468;13.560;2023-05-10T00:07:32;17.70;87.60
63317;DHT22;49822;41.468;13.560;2023-05-10T00:09:58;17.70;87.40
63317;DHT22;49822;41.468;13.560;2023-05-10T00:12:24;17.70;87.20
63317;DHT22;49822;41.468;13.560;2023-05-10T00:14:50;17.50;87.50
63317;DHT22;49822;41.468;13.560;2023-05-10T00:17:16;17.40;87.50
63317;DHT22;49822;41.468;13.560;2023-05-10T00:19:42;17.30;88.10
63317;DHT22;49822;41.468;13.560;2023-05-10T00:22:08;17.30;88.20
63317;DHT22;49822;41.468;13.560;2023-05-10T00:24:34;17.20;88.50
63317;DHT22;49822;41.468;13.560;2023-05-10T00:27:00;17.20;88.10
63317;DHT22;49822;41.468;13.560;2023-05-10T00:29:26;17.20;88.10
63317;DHT22;49822;41.468;13.560;2023-05-10T00:31:54;17.30;88.20
63317;DHT22;49822;41.468;13.560;2023-05-10T00:34:20;17.40;87.80
63317;DHT22;49822;41.468;13.560;2023-05-10T00:36:46;17.50;88.00
63317;DHT22;49822;41.468;13.560;2023-05-10T00:39:12;17.50;87.80
63317;DHT22;49822;41.468;13.560;2023-05-10T00:41:38;17.40;87.70
63317;DHT22;49822;41.468;13.560;2023-05-10T00:44:06;17.30;87.80
63317;DHT22;49822;41.468;13.560;2023-05-10T00:46:32;17.10;88.10
63317;DHT22;49822;41.468;13.560;2023-05-10T00:48:59;17.00;88.30
63317;DHT22;49822;41.468;13.560;2023-05-10T00:51:25;17.00;88.50
63317;DHT22;49822;41.468;13.560;2023-05-10T00:53:52;16.90;88.40
63317;DHT22;49822;41.468;13.560;2023-05-10T00:56:18;17.00;88.00
63317;DHT22;49822;41.468;13.560;2023-05-10T00:58:48;17.00;88.10
63317;DHT22;49822;41.468;13.560;2023-05-10T01:01:14;17.00;88.20
63317;DHT22;49822;41.468;13.560;2023-05-10T01:03:41;17.00;88.00
63317;DHT22;49822;41.468;13.560;2023-05-10T01:06:07;17.10;88.20
63317;DHT22;49822;41.468;13.560;2023-05-10T01:08:36;17.00;88.40
63317;DHT22;49822;41.468;13.560;2023-05-10T01:11:02;17.00;88.30
63317;DHT22;49822;41.468;13.560;2023-05-10T01:13:34;17.00;88.80
63317;DHT22;49822;41.468;13.560;2023-05-10T01:16:03;16.90;88.60
63317;DHT22;49822;41.468;13.560;2023-05-10T01:18:30;16.90;88.60
63317;DHT22;49822;41.468;13.560;2023-05-10T01:29:11;17.10;88.10
63317;DHT22;49822;41.468;13.560;2023-05-10T01:34:48;17.20;88.00
63317;DHT22;49822;41.468;13.560;2023-05-10T01:37:59;17.20;88.30
63317;DHT22;49822;41.468;13.560;2023-05-10T01:40:38;17.00;88.50
63317;DHT22;49822;41.468;13.560;2023-05-10T01:43:11;17.00;88.70
63317;DHT22;49822;41.468;13.560;2023-05-10T01:48:19;17.10;88.60
63317;DHT22;49822;41.468;13.560;2023-05-10T01:50:46;17.10;88.60
63317;DHT22;49822;41.468;13.560;2023-05-10T01:53:18;17.10;88.40
63317;DHT22;49822;41.468;13.560;2023-05-10T01:55:52;17.20;88.20
63317;DHT22;49822;41.468;13.560;2023-05-10T01:58:27;17.20;88.30
63317;DHT22;49822;41.468;13.560;2023-05-10T02:00:54;17.20;88.00
63317;DHT22;49822;41.468;13.560;2023-05-10T02:03:23;17.10;88.20
63317;DHT22;49822;41.468;13.560;2023-05-10T02:05:52;17.10;88.10
63317;DHT22;49822;41.468;13.560;2023-05-10T02:08:22;17.10;88.10
63317;DHT22;49822;41.468;13.560;2023-05-10T02:10:50;17.10;88.00
63317;DHT22;49822;41.468;13.560;2023-05-10T02:13:18;17.10;88.20
63317;DHT22;49822;41.468;13.560;2023-05-10T02:15:48;17.20;88.40
63317;DHT22;49822;41.468;13.560;2023-05-10T02:18:18;16.80;89.40
63317;DHT22;49822;41.468;13.560;2023-05-10T02:20:47;16.70;89.30
63317;DHT22;49822;41.468;13.560;2023-05-10T02:23:17;16.60;89.80
63317;DHT22;49822;41.468;13.560;2023-05-10T02:25:44;16.60;90.00
63317;DHT22;49822;41.468;13.560;2023-05-10T02:28:11;16.60;89.80
63317;DHT22;49822;41.468;13.560;2023-05-10T02:30:40;16.50;89.90
63317;DHT22;49822;41.468;13.560;2023-05-10T02:33:10;16.70;89.90
63317;DHT22;49822;41.468;13.560;2023-05-10T02:35:38;16.70;89.50
63317;DHT22;49822;41.468;13.560;2023-05-10T02:38:05;16.70;89.10
63317;DHT22;49822;41.468;13.560;2023-05-10T02:40:32;16.80;89.20
63317;DHT22;49822;41.468;13.560;2023-05-10T02:43:01;16.80;89.30
63317;DHT22;49822;41.468;13.560;2023-05-10T02:45:31;16.80;89.40
63317;DHT22;49822;41.468;13.560;2023-05-10T02:47:59;16.40;89.70
63317;DHT22;49822;41.468;13.560;2023-05-10T02:50:27;16.30;90.80
63317;DHT22;49822;41.468;13.560;2023-05-10T02:52:59;16.30;91.10
63317;DHT22;49822;41.468;13.560;2023-05-10T02:55:31;16.30;91.30
63317;DHT22;49822;41.468;13.560;2023-05-10T02:58:00;16.10;91.90
63317;DHT22;49822;41.468;13.560;2023-05-10T03:00:30;16.00;92.10
63317;DHT22;49822;41.468;13.560;2023-05-10T03:02:58;16.00;92.10
63317;DHT22;49822;41.468;13.560;2023-05-10T03:05:25;16.00;91.90
63317;DHT22;49822;41.468;13.560;2023-05-10T03:07:52;16.20;91.40
63317;DHT22;49822;41.468;13.560;2023-05-10T03:10:19;16.30;91.20
63317;DHT22;49822;41.468;13.560;2023-05-10T03:16:12;16.40;90.00
63317;DHT22;49822;41.468;13.560;2023-05-10T03:19:32;16.50;89.60
63317;DHT22;49822;41.468;13.560;2023-05-10T03:22:06;16.50;89.60
63317;DHT22;49822;41.468;13.560;2023-05-10T03:24:36;16.40;89.70
63317;DHT22;49822;41.468;13.560;2023-05-10T03:27:05;16.40;90.40
63317;DHT22;49822;41.468;13.560;2023-05-10T03:29:34;16.10;90.40
63317;DHT22;49822;41.468;13.560;2023-05-10T03:32:02;16.10;90.70
63317;DHT22;49822;41.468;13.560;2023-05-10T03:34:30;16.10;90.70
63317;DHT22;49822;41.468;13.560;2023-05-10T03:36:57;16.20;90.90
63317;DHT22;49822;41.468;13.560;2023-05-10T03:39:25;16.00;91.20
63317;DHT22;49822;41.468;13.560;2023-05-10T03:41:56;16.00;91.60
63317;DHT22;49822;41.468;13.560;2023-05-10T03:44:22;16.00;91.60
63317;DHT22;49822;41.468;13.560;2023-05-10T03:46:48;16.20;91.50
63317;DHT22;49822;41.468;13.560;2023-05-10T03:49:14;16.10;90.80
63317;DHT22;49822;41.468;13.560;2023-05-10T03:51:40;16.20;90.60
63317;DHT22;49822;41.468;13.560;2023-05-10T03:54:07;16.20;90.50
63317;DHT22;49822;41.468;13.560;2023-05-10T03:56:33;16.20;90.20
63317;DHT22;49822;41.468;13.560;2023-05-10T03:58:59;16.30;90.00
63317;DHT22;49822;41.468;13.560;2023-05-10T04:01:25;16.30;90.60
63317;DHT22;49822;41.468;13.560;2023-05-10T04:03:51;16.20;90.40
63317;DHT22;49822;41.468;13.560;2023-05-10T04:06:17;16.10;90.70
63317;DHT22;49822;41.468;13.560;2023-05-10T04:08:43;16.20;90.70
63317;DHT22;49822;41.468;13.560;2023-05-10T04:11:11;16.20;90.50
63317;DHT22;49822;41.468;13.560;2023-05-10T04:13:38;16.20;90.90
63317;DHT22;49822;41.468;13.560;2023-05-10T04:16:05;16.20;90.60
63317;DHT22;49822;41.468;13.560;2023-05-10T04:18:31;16.30;90.50
63317;DHT22;49822;41.468;13.560;2023-05-10T04:20:57;16.30;89.80
63317;DHT22;49822;41.468;13.560;2023-05-10T04:23:24;16.30;89.90
63317;DHT22;49822;41.468;13.560;2023-05-10T04:25:51;16.30;89.70
63317;DHT22;49822;41.468;13.560;2023-05-10T04:28:20;16.30;90.10
63317;DHT22;49822;41.468;13.560;2023-05-10T04:30:48;16.30;90.60
63317;DHT22;49822;41.468;13.560;2023-05-10T04:33:15;16.40;90.30
63317;DHT22;49822;41.468;13.560;2023-05-10T04:35:41;16.40;90.00
63317;DHT22;49822;41.468;13.560;2023-05-10T04:38:08;16.40;90.00
63317;DHT22;49822;41.468;13.560;2023-05-10T04:40:33;16.50;89.80
63317;DHT22;49822;41.468;13.560;2023-05-10T04:43:00;16.50;89.80
63317;DHT22;49822;41.468;13.560;2023-05-10T04:45:28;16.50;89.70
63317;DHT22;49822;41.468;13.560;2023-05-10T04:47:56;16.60;89.50
63317;DHT22;49822;41.468;13.560;2023-05-10T04:50:23;16.60;89.80
63317;DHT22;49822;41.468;13.560;2023-05-10T04:52:49;16.70;89.50
63317;DHT22;49822;41.468;13.560;2023-05-10T04:55:15;16.70;89.50
63317;DHT22;49822;41.468;13.560;2023-05-10T04:57:41;16.60;89.30
63317;DHT22;49822;41.468;13.560;2023-05-10T05:00:08;16.70;89.70
63317;DHT22;49822;41.468;13.560;2023-05-10T05:02:35;16.60;90.20
63317;DHT22;49822;41.468;13.560;2023-05-10T05:05:01;16.60;89.80
63317;DHT22;49822;41.468;13.560;2023-05-10T05:07:27;16.60;89.80
63317;DHT22;49822;41.468;13.560;2023-05-10T05:09:53;16.70;89.60
63317;DHT22;49822;41.468;13.560;2023-05-10T05:12:19;16.70;89.40
63317;DHT22;49822;41.468;13.560;2023-05-10T05:14:46;16.80;89.50
63317;DHT22;49822;41.468;13.560;2023-05-10T05:17:12;16.80;89.70
63317;DHT22;49822;41.468;13.560;2023-05-10T05:19:38;16.80;91.10
63317;DHT22;49822;41.468;13.560;2023-05-10T05:22:06;16.80;90.50
63317;DHT22;49822;41.468;13.560;2023-05-10T05:24:37;16.80;90.10
63317;DHT22;49822;41.468;13.560;2023-05-10T05:27:04;17.00;89.60
63317;DHT22;49822;41.468;13.560;2023-05-10T05:29:30;17.00;89.60
63317;DHT22;49822;41.468;13.560;2023-05-10T05:31:56;17.20;89.90
63317;DHT22;49822;41.468;13.560;2023-05-10T05:34:22;17.10;90.40
63317;DHT22;49822;41.468;13.560;2023-05-10T05:36:50;17.30;90.10
63317;DHT22;49822;41.468;13.560;2023-05-10T05:39:16;17.30;89.90
63317;DHT22;49822;41.468;13.560;2023-05-10T05:41:42;17.30;89.90
63317;DHT22;49822;41.468;13.560;2023-05-10T05:44:09;17.40;89.50
63317;DHT22;49822;41.468;13.560;2023-05-10T05:46:35;17.40;90.10
63317;DHT22;49822;41.468;13.560;2023-05-10T05:49:01;17.40;89.60
63317;DHT22;49822;41.468;13.560;2023-05-10T05:51:28;17.30;90.60
63317;DHT22;49822;41.468;13.560;2023-05-10T05:53:55;17.30;90.10
63317;DHT22;49822;41.468;13.560;2023-05-10T05:56:21;17.30;91.00
63317;DHT22;49822;41.468;13.560;2023-05-10T05:58:50;17.20;91.00
63317;DHT22;49822;41.468;13.560;2023-05-10T06:01:16;16.90;91.50
63317;DHT22;49822;41.468;13.560;2023-05-10T06:03:43;16.90;91.70
63317;DHT22;49822;41.468;13.560;2023-05-10T06:06:09;17.00;91.50
63317;DHT22;49822;41.468;13.560;2023-05-10T06:08:36;17.00;90.90
63317;DHT22;49822;41.468;13.560;2023-05-10T06:11:02;17.10;91.40
63317;DHT22;49822;41.468;13.560;2023-05-10T06:13:31;17.10;91.30
63317;DHT22;49822;41.468;13.560;2023-05-10T06:16:00;17.20;91.60
63317;DHT22;49822;41.468;13.560;2023-05-10T06:18:30;17.30;90.90
63317;DHT22;49822;41.468;13.560;2023-05-10T06:20:56;17.30;91.00
63317;DHT22;49822;41.468;13.560;2023-05-10T06:23:23;17.40;90.50
63317;DHT22;49822;41.468;13.560;2023-05-10T06:25:49;17.50;90.20
63317;DHT22;49822;41.468;13.560;2023-05-10T06:28:31;17.60;89.30
63317;DHT22;49822;41.468;13.560;2023-05-10T06:31:06;17.60;89.50
63317;DHT22;49822;41.468;13.560;2023-05-10T06:33:33;17.70;89.10
63317;DHT22;49822;41.468;13.560;2023-05-10T06:35:59;17.70;89.50
63317;DHT22;49822;41.468;13.560;2023-05-10T06:38:26;17.80;89.50
63317;DHT22;49822;41.468;13.560;2023-05-10T06:40:52;17.90;89.30
63317;DHT22;49822;41.468;13.560;2023-05-10T06:43:18;17.90;88.80
63317;DHT22;49822;41.468;13.560;2023-05-10T06:45:44;18.00;88.70
63317;DHT22;49822;41.468;13.560;2023-05-10T06:48:13;18.00;88.80
63317;DHT22;49822;41.468;13.560;2023-05-10T06:50:38;18.00;88.60
63317;DHT22;49822;41.468;13.560;2023-05-10T06:53:05;18.10;88.30
63317;DHT22;49822;41.468;13.560;2023-05-10T06:55:31;18.10;88.30
63317;DHT22;49822;41.468;13.560;2023-05-10T06:57:58;18.10;88.00
63317;DHT22;49822;41.468;13.560;2023-05-10T07:00:26;18.20;87.60
63317;DHT22;49822;41.468;13.560;2023-05-10T07:02:56;18.30;87.60
63317;DHT22;49822;41.468;13.560;2023-05-10T07:05:21;18.30;88.40
63317;DHT22;49822;41.468;13.560;2023-05-10T07:07:48;18.50;87.70
63317;DHT22;49822;41.468;13.560;2023-05-10T07:10:14;18.70;87.60
63317;DHT22;49822;41.468;13.560;2023-05-10T07:12:40;18.70;87.70
63317;DHT22;49822;41.468;13.560;2023-05-10T07:15:07;18.90;87.90
63317;DHT22;49822;41.468;13.560;2023-05-10T07:17:34;18.80;87.70
63317;DHT22;49822;41.468;13.560;2023-05-10T07:20:00;18.90;87.20
63317;DHT22;49822;41.468;13.560;2023-05-10T07:22:27;19.00;87.20
63317;DHT22;49822;41.468;13.560;2023-05-10T07:24:53;19.00;87.20
63317;DHT22;49822;41.468;13.560;2023-05-10T07:27:20;19.00;87.50
63317;DHT22;49822;41.468;13.560;2023-05-10T07:29:46;19.10;87.60
63317;DHT22;49822;41.468;13.560;2023-05-10T07:32:12;19.00;87.30
63317;DHT22;49822;41.468;13.560;2023-05-10T07:34:38;19.00;87.70
63317;DHT22;49822;41.468;13.560;2023-05-10T07:37:04;19.00;87.60
63317;DHT22;49822;41.468;13.560;2023-05-10T07:39:31;19.00;87.50
63317;DHT22;49822;41.468;13.560;2023-05-10T07:41:57;19.00;87.90
63317;DHT22;49822;41.468;13.560;2023-05-10T07:44:24;18.90;87.80
63317;DHT22;49822;41.468;13.560;2023-05-10T07:46:50;18.90;88.00
63317;DHT22;49822;41.468;13.560;2023-05-10T07:49:17;19.00;88.20
63317;DHT22;49822;41.468;13.560;2023-05-10T07:51:43;18.90;88.70
63317;DHT22;49822;41.468;13.560;2023-05-10T07:54:09;18.80;88.80
63317;DHT22;49822;41.468;13.560;2023-05-10T07:56:35;18.70;88.70
63317;DHT22;49822;41.468;13.560;2023-05-10T07:59:03;18.60;88.90
63317;DHT22;49822;41.468;13.560;2023-05-10T08:01:34;18.70;88.80
63317;DHT22;49822;41.468;13.560;2023-05-10T08:04:00;18.60;88.70
63317;DHT22;49822;41.468;13.560;2023-05-10T08:06:27;18.60;89.00
63317;DHT22;49822;41.468;13.560;2023-05-10T08:08:55;18.50;89.50
63317;DHT22;49822;41.468;13.560;2023-05-10T08:11:22;18.40;89.40
63317;DHT22;49822;41.468;13.560;2023-05-10T08:13:49;18.40;89.50
63317;DHT22;49822;41.468;13.560;2023-05-10T08:16:16;18.30;89.40
63317;DHT22;49822;41.468;13.560;2023-05-10T08:18:44;18.30;89.50
63317;DHT22;49822;41.468;13.560;2023-05-10T08:21:11;18.20;89.60
63317;DHT22;49822;41.468;13.560;2023-05-10T08:23:37;18.20;89.40
63317;DHT22;49822;41.468;13.560;2023-05-10T08:26:03;18.20;89.70
63317;DHT22;49822;41.468;13.560;2023-05-10T08:28:29;18.10;90.70
63317;DHT22;49822;41.468;13.560;2023-05-10T08:30:55;18.10;90.80
63317;DHT22;49822;41.468;13.560;2023-05-10T08:33:22;18.10;91.00
63317;DHT22;49822;41.468;13.560;2023-05-10T08:35:48;18.10;91.80
63317;DHT22;49822;41.468;13.560;2023-05-10T08:38:14;18.10;91.90
63317;DHT22;49822;41.468;13.560;2023-05-10T08:40:43;17.90;91.90
63317;DHT22;49822;41.468;13.560;2023-05-10T08:43:12;17.90;91.80
63317;DHT22;49822;41.468;13.560;2023-05-10T08:45:44;17.90;91.50
63317;DHT22;49822;41.468;13.560;2023-05-10T08:48:14;17.90;91.00
63317;DHT22;49822;41.468;13.560;2023-05-10T08:50:41;17.90;91.50
63317;DHT22;49822;41.468;13.560;2023-05-10T08:53:12;17.90;91.20
63317;DHT22;49822;41.468;13.560;2023-05-10T08:55:39;18.00;91.60
63317;DHT22;49822;41.468;13.560;2023-05-10T08:58:08;17.90;91.50
63317;DHT22;49822;41.468;13.560;2023-05-10T09:00:37;17.90;92.00
63317;DHT22;49822;41.468;13.560;2023-05-10T09:03:05;18.00;92.30
63317;DHT22;49822;41.468;13.560;2023-05-10T09:05:32;18.00;92.00
63317;DHT22;49822;41.468;13.560;2023-05-10T09:07:58;18.00;92.00
63317;DHT22;49822;41.468;13.560;2023-05-10T09:10:27;18.00;91.70
63317;DHT22;49822;41.468;13.560;2023-05-10T09:12:56;18.10;91.50
63317;DHT22;49822;41.468;13.560;2023-05-10T09:15:24;18.20;91.10
63317;DHT22;49822;41.468;13.560;2023-05-10T09:17:52;18.10;92.20
63317;DHT22;49822;41.468;13.560;2023-05-10T09:20:19;18.10;91.70
63317;DHT22;49822;41.468;13.560;2023-05-10T09:22:46;18.10;91.30
63317;DHT22;49822;41.468;13.560;2023-05-10T09:25:16;18.20;90.70
63317;DHT22;49822;41.468;13.560;2023-05-10T09:27:47;18.20;91.00
63317;DHT22;49822;41.468;13.560;2023-05-10T09:30:27;18.20;91.40
63317;DHT22;49822;41.468;13.560;2023-05-10T09:32:58;18.10;92.00
63317;DHT22;49822;41.468;13.560;2023-05-10T09:35:27;18.20;91.20
63317;DHT22;49822;41.468;13.560;2023-05-10T09:37:56;18.20;91.40
63317;DHT22;49822;41.468;13.560;2023-05-10T09:40:25;18.20;90.90
63317;DHT22;49822;41.468;13.560;2023-05-10T09:42:59;18.10;91.70
63317;DHT22;49822;41.468;13.560;2023-05-10T09:45:30;18.10;91.90
63317;DHT22;49822;41.468;13.560;2023-05-10T09:48:00;18.10;91.60
63317;DHT22;49822;41.468;13.560;2023-05-10T09:50:27;18.20;91.90
63317;DHT22;49822;41.468;13.560;2023-05-10T09:52:59;18.10;92.00
63317;DHT22;49822;41.468;13.560;2023-05-10T09:55:39;18.20;91.10
63317;DHT22;49822;41.468;13.560;2023-05-10T09:58:06;18.20;90.90
63317;DHT22;49822;41.468;13.560;2023-05-10T10:00:39;18.20;90.40
63317;DHT22;49822;41.468;13.560;2023-05-10T10:03:13;18.20;91.50
63317;DHT22;49822;41.468;13.560;2023-05-10T10:05:41;18.20;91.60
63317;DHT22;49822;41.468;13.560;2023-05-10T10:08:08;18.00;92.50
63317;DHT22;49822;41.468;13.560;2023-05-10T10:10:35;17.90;93.10
63317;DHT22;49822;41.468;13.560;2023-05-10T10:13:02;17.90;92.90
63317;DHT22;49822;41.468;13.560;2023-05-10T10:15:30;18.00;92.90
63317;DHT22;49822;41.468;13.560;2023-05-10T10:17:58;18.00;92.60
63317;DHT22;49822;41.468;13.560;2023-05-10T10:20:26;18.00;92.70
63317;DHT22;49822;41.468;13.560;2023-05-10T10:22:53;18.20;92.20
63317;DHT22;49822;41.468;13.560;2023-05-10T10:25:21;18.20;92.10
63317;DHT22;49822;41.468;13.560;2023-05-10T10:30:41;18.50;91.80
63317;DHT22;49822;41.468;13.560;2023-05-10T10:33:49;18.70;92.00
63317;DHT22;49822;41.468;13.560;2023-05-10T10:36:17;18.90;92.10
63317;DHT22;49822;41.468;13.560;2023-05-10T10:41:33;19.20;90.80
63317;DHT22;49822;41.468;13.560;2023-05-10T10:52:37;20.00;88.60
63317;DHT22;49822;41.468;13.560;2023-05-10T10:55:06;20.10;89.00
63317;DHT22;49822;41.468;13.560;2023-05-10T10:57:52;20.40;89.10
63317;DHT22;49822;41.468;13.560;2023-05-10T11:10:37;20.90;87.90
63317;DHT22;49822;41.468;13.560;2023-05-10T11:13:10;20.90;90.40
63317;DHT22;49822;41.468;13.560;2023-05-10T11:15:39;20.80;89.10
63317;DHT22;49822;41.468;13.560;2023-05-10T11:18:23;20.90;88.80
63317;DHT22;49822;41.468;13.560;2023-05-10T11:21:02;20.90;87.80
63317;DHT22;49822;41.468;13.560;2023-05-10T11:26:07;20.90;88.20
63317;DHT22;49822;41.468;13.560;2023-05-10T11:28:41;20.90;88.10
63317;DHT22;49822;41.468;13.560;2023-05-10T11:31:07;20.70;88.40
63317;DHT22;49822;41.468;13.560;2023-05-10T11:33:48;20.60;88.20
63317;DHT22;49822;41.468;13.560;2023-05-10T11:36:18;20.40;88.00
63317;DHT22;49822;41.468;13.560;2023-05-10T11:38:45;20.30;88.10
63317;DHT22;49822;41.468;13.560;2023-05-10T11:41:12;20.00;88.50
63317;DHT22;49822;41.468;13.560;2023-05-10T11:43:39;20.00;89.30
63317;DHT22;49822;41.468;13.560;2023-05-10T11:46:11;19.90;88.70
63317;DHT22;49822;41.468;13.560;2023-05-10T11:48:41;19.90;89.00
63317;DHT22;49822;41.468;13.560;2023-05-10T11:51:08;19.90;89.80
63317;DHT22;49822;41.468;13.560;2023-05-10T11:53:34;19.90;89.60
63317;DHT22;49822;41.468;13.560;2023-05-10T11:58:31;20.20;89.90
63317;DHT22;49822;41.468;13.560;2023-05-10T12:00:59;20.20;89.70
63317;DHT22;49822;41.468;13.560;2023-05-10T12:03:27;20.20;89.90
63317;DHT22;49822;41.468;13.560;2023-05-10T12:05:54;20.20;89.80
63317;DHT22;49822;41.468;13.560;2023-05-10T12:08:22;20.20;89.40
63317;DHT22;49822;41.468;13.560;2023-05-10T12:10:49;20.20;88.60
63317;DHT22;49822;41.468;13.560;2023-05-10T12:13:15;20.20;88.50
63317;DHT22;49822;41.468;13.560;2023-05-10T12:15:42;20.30;88.20
63317;DHT22;49822;41.468;13.560;2023-05-10T12:18:13;20.40;88.10
63317;DHT22;49822;41.468;13.560;2023-05-10T12:20:40;20.60;88.50
63317;DHT22;49822;41.468;13.560;2023-05-10T12:23:09;20.80;89.10
63317;DHT22;49822;41.468;13.560;2023-05-10T12:25:37;21.00;89.20
63317;DHT22;49822;41.468;13.560;2023-05-10T12:28:05;21.20;88.10
63317;DHT22;49822;41.468;13.560;2023-05-10T12:30:33;21.20;88.00
63317;DHT22;49822;41.468;13.560;2023-05-10T12:33:03;21.10;86.00
63317;DHT22;49822;41.468;13.560;2023-05-10T12:35:33;21.10;86.30
63317;DHT22;49822;41.468;13.560;2023-05-10T12:37:59;21.10;86.50
63317;DHT22;49822;41.468;13.560;2023-05-10T12:40:25;21.00;86.30
63317;DHT22;49822;41.468;13.560;2023-05-10T12:42:51;20.90;86.70
63317;DHT22;49822;41.468;13.560;2023-05-10T12:45:18;20.80;87.70
63317;DHT22;49822;41.468;13.560;2023-05-10T12:47:44;20.70;86.90
63317;DHT22;49822;41.468;13.560;2023-05-10T12:50:10;20.60;87.10
63317;DHT22;49822;41.468;13.560;2023-05-10T12:52:36;20.50;87.50
63317;DHT22;49822;41.468;13.560;2023-05-10T12:55:03;20.40;87.80
63317;DHT22;49822;41.468;13.560;2023-05-10T12:57:31;20.30;88.20
63317;DHT22;49822;41.468;13.560;2023-05-10T12:59:58;20.00;88.60
63317;DHT22;49822;41.468;13.560;2023-05-10T13:02:24;19.80;87.70
63317;DHT22;49822;41.468;13.560;2023-05-10T13:04:50;19.80;88.40
63317;DHT22;49822;41.468;13.560;2023-05-10T13:07:16;19.80;89.10
63317;DHT22;49822;41.468;13.560;2023-05-10T13:09:42;19.70;88.80
63317;DHT22;49822;41.468;13.560;2023-05-10T13:12:09;19.70;88.50
63317;DHT22;49822;41.468;13.560;2023-05-10T13:14:35;19.70;89.00
63317;DHT22;49822;41.468;13.560;2023-05-10T13:17:01;19.70;88.40
63317;DHT22;49822;41.468;13.560;2023-05-10T13:19:27;19.80;89.20
63317;DHT22;49822;41.468;13.560;2023-05-10T13:21:53;19.80;88.60
63317;DHT22;49822;41.468;13.560;2023-05-10T13:24:19;19.90;88.30
63317;DHT22;49822;41.468;13.560;2023-05-10T13:26:45;19.80;88.40
63317;DHT22;49822;41.468;13.560;2023-05-10T13:29:11;19.90;88.20
63317;DHT22;49822;41.468;13.560;2023-05-10T13:31:37;19.90;87.60
63317;DHT22;49822;41.468;13.560;2023-05-10T13:34:04;20.00;87.90
63317;DHT22;49822;41.468;13.560;2023-05-10T13:36:31;20.00;87.70
63317;DHT22;49822;41.468;13.560;2023-05-10T13:38:57;20.00;87.50
63317;DHT22;49822;41.468;13.560;2023-05-10T13:41:23;20.00;87.40
63317;DHT22;49822;41.468;13.560;2023-05-10T13:43:49;20.10;87.70
63317;DHT22;49822;41.468;13.560;2023-05-10T13:46:15;19.90;85.50
63317;DHT22;49822;41.468;13.560;2023-05-10T13:48:41;19.40;85.70
63317;DHT22;49822;41.468;13.560;2023-05-10T13:51:07;19.30;87.00
63317;DHT22;49822;41.468;13.560;2023-05-10T13:53:34;19.10;86.90
63317;DHT22;49822;41.468;13.560;2023-05-10T13:56:00;19.00;88.20
63317;DHT22;49822;41.468;13.560;2023-05-10T13:58:26;19.10;88.60
63317;DHT22;49822;41.468;13.560;2023-05-10T14:00:53;19.20;89.80
63317;DHT22;49822;41.468;13.560;2023-05-10T14:03:20;19.30;87.30
63317;DHT22;49822;41.468;13.560;2023-05-10T14:05:46;19.30;86.80
63317;DHT22;49822;41.468;13.560;2023-05-10T14:08:13;19.30;87.60
63317;DHT22;49822;41.468;13.560;2023-05-10T14:10:40;19.30;87.60
63317;DHT22;49822;41.468;13.560;2023-05-10T14:13:06;19.10;86.90
63317;DHT22;49822;41.468;13.560;2023-05-10T14:15:33;18.40;88.50
63317;DHT22;49822;41.468;13.560;2023-05-10T14:18:00;17.90;89.60
63317;DHT22;49822;41.468;13.560;2023-05-10T14:20:26;17.60;90.90
63317;DHT22;49822;41.468;13.560;2023-05-10T14:22:52;17.50;91.00
63317;DHT22;49822;41.468;13.560;2023-05-10T14:25:19;17.40;91.30
63317;DHT22;49822;41.468;13.560;2023-05-10T14:27:45;17.50;91.20
63317;DHT22;49822;41.468;13.560;2023-05-10T14:30:12;17.40;90.90
63317;DHT22;49822;41.468;13.560;2023-05-10T14:32:38;17.40;92.00
63317;DHT22;49822;41.468;13.560;2023-05-10T14:35:05;17.30;91.10
63317;DHT22;49822;41.468;13.560;2023-05-10T14:37:32;17.20;90.30
63317;DHT22;49822;41.468;13.560;2023-05-10T14:39:58;17.20;91.00
63317;DHT22;49822;41.468;13.560;2023-05-10T14:42:24;17.20;90.80
63317;DHT22;49822;41.468;13.560;2023-05-10T14:44:50;17.20;90.00
63317;DHT22;49822;41.468;13.560;2023-05-10T14:47:16;17.30;90.00
63317;DHT22;49822;41.468;13.560;2023-05-10T14:49:42;17.20;89.20
63317;DHT22;49822;41.468;13.560;2023-05-10T14:52:08;17.30;89.70
63317;DHT22;49822;41.468;13.560;2023-05-10T14:54:34;17.50;89.60
63317;DHT22;49822;41.468;13.560;2023-05-10T14:57:00;17.70;89.70
63317;DHT22;49822;41.468;13.560;2023-05-10T14:59:26;17.80;88.90
63317;DHT22;49822;41.468;13.560;2023-05-10T15:01:52;17.80;86.00
63317;DHT22;49822;41.468;13.560;2023-05-10T15:04:19;17.90;86.50
63317;DHT22;49822;41.468;13.560;2023-05-10T15:06:45;17.90;86.30
63317;DHT22;49822;41.468;13.560;2023-05-10T15:09:11;17.90;86.30
63317;DHT22;49822;41.468;13.560;2023-05-10T15:11:37;18.00;86.60
63317;DHT22;49822;41.468;13.560;2023-05-10T15:14:03;18.10;87.00
63317;DHT22;49822;41.468;13.560;2023-05-10T15:16:29;18.10;86.70
63317;DHT22;49822;41.468;13.560;2023-05-10T15:18:56;18.30;87.50
63317;DHT22;49822;41.468;13.560;2023-05-10T15:21:22;18.30;88.00
63317;DHT22;49822;41.468;13.560;2023-05-10T15:23:48;18.30;87.20
63317;DHT22;49822;41.468;13.560;2023-05-10T15:26:14;18.40;88.70
63317;DHT22;49822;41.468;13.560;2023-05-10T15:28:40;18.20;86.80
63317;DHT22;49822;41.468;13.560;2023-05-10T15:31:08;18.20;86.10
63317;DHT22;49822;41.468;13.560;2023-05-10T15:33:36;18.30;86.00
63317;DHT22;49822;41.468;13.560;2023-05-10T15:36:02;18.30;86.50
63317;DHT22;49822;41.468;13.560;2023-05-10T15:38:29;18.20;88.30
63317;DHT22;49822;41.468;13.560;2023-05-10T15:40:57;18.00;86.80
63317;DHT22;49822;41.468;13.560;2023-05-10T15:43:23;18.00;86.90
63317;DHT22;49822;41.468;13.560;2023-05-10T15:45:50;18.10;85.80
63317;DHT22;49822;41.468;13.560;2023-05-10T15:48:16;18.30;85.90
63317;DHT22;49822;41.468;13.560;2023-05-10T15:50:42;18.30;84.50
63317;DHT22;49822;41.468;13.560;2023-05-10T15:53:09;18.40;84.30
63317;DHT22;49822;41.468;13.560;2023-05-10T15:55:35;18.20;85.10
63317;DHT22;49822;41.468;13.560;2023-05-10T15:58:02;18.30;85.60
63317;DHT22;49822;41.468;13.560;2023-05-10T16:00:28;18.20;85.00
63317;DHT22;49822;41.468;13.560;2023-05-10T16:02:54;18.30;86.30
63317;DHT22;49822;41.468;13.560;2023-05-10T16:05:20;18.40;85.40